Wednesday, April 25, 2018, 1:05 AM EDT
Back to Local

KCAK, Akron-canton Regional Airport

Location: Canton, OH, United States Lat: 40.917
Local Time: 1:05 AM EDT ( 5:05 GMT) Lon: -81.45
Time Zone: US/Eastern Elev: 1227 ft

Show me the last for .
Show Decoded

2018-04-25 00:51 METAR KCAK 250451Z 11007KT 10SM FEW012 OVC032 11/09 A2991 RMK AO2 SLP129
                 T01110089 401390100 =
2018-04-24 23:51 METAR KCAK 250351Z 11007KT 7SM SCT009 SCT012 OVC028 11/09 A2992 RMK AO2 RAE36
                 SLP134 P0001 T01110089 =
2018-04-24 23:31 METAR KCAK 250331Z 11006KT 4SM -RA BR BKN009 OVC028 11/09 A2993 RMK AO2 P0001
                 T01110089 =
2018-04-24 22:51 METAR KCAK 250251Z 12008KT 4SM -RA BR OVC011 11/09 A2994 RMK AO2 RAB0159 SLP140
                 P0001 60001 T01110089 58005 =
2018-04-24 21:51 METAR KCAK 250151Z 11009KT 7SM BKN011 OVC039 11/09 A2995 RMK AO2 SLP145
                 T01110089 =
2018-04-24 20:51 METAR KCAK 250051Z 13010KT 3SM BR BKN010 OVC032 11/09 A2996 RMK AO2 SLP146
                 T01110089 =
2018-04-24 20:25 METAR KCAK 250025Z 12010KT 8SM OVC013 12/09 A2996 RMK AO2 T01170089 =
2018-04-24 19:51 METAR KCAK 242351Z 12011KT 10SM BKN015 OVC038 12/09 A2996 RMK AO2 RAB28E46
                 SLP145 P0000 60017 T01170089 10122 20111 58010 =
2018-04-24 18:51 METAR KCAK 242251Z 12009KT 10SM BKN015 OVC027 12/09 A2997 RMK AO2 SLP149
                 T01220094 =
2018-04-24 17:51 METAR KCAK 242151Z 11009KT 5SM BR BKN011 OVC034 12/10 A2998 RMK AO2 RAE47 SLP151
                 P0004 T01220100 =
2018-04-24 16:51 METAR KCAK 242051Z 11009KT 3SM -RA BR BKN010 OVC048 12/10 A2999 RMK AO2 SFC VIS
                 4 SLP154 P0002 60013 T01220100 57023 =
2018-04-24 16:36 METAR KCAK 242036Z 11009KT 3SM -RA BKN015 OVC050 12/09 A3000 RMK AO2 SFC VIS 5
                 P0002 T01220094 =
2018-04-24 15:51 METAR KCAK 241951Z 11010KT 3SM -RA BR SCT010 OVC048 12/09 A3001 RMK AO2 SFC VIS
                 5 SLP162 P0005 T01170094 =
2018-04-24 15:29 METAR KCAK 241929Z 11009KT 3SM -RA BR SCT011 OVC042 12/09 A3002 =
2018-04-24 14:51 METAR KCAK 241851Z 11010KT 3SM -RA BR BKN011 OVC055 11/09 A3004 RMK AO2 SFC VIS
                 5 SLP172 P0006 T01110089 =
2018-04-24 13:51 METAR KCAK 241751Z 12011KT 3SM -RA BR OVC013 11/09 A3006 RMK AO2 SLP179 P0005
                 60011 T01110089 10122 20100 56016 =
2018-04-24 13:08 METAR KCAK 241708Z 11010KT 6SM -RA OVC013 11/08 A3007 RMK AO2 P0001 T01110083 =
2018-04-24 12:51 METAR KCAK 241651Z 10010KT 8SM -RA BKN015 OVC048 11/08 A3007 RMK AO2 SLP185
                 P0002 T01060083 =
2018-04-24 11:51 METAR KCAK 241551Z 11011KT 6SM -RA OVC017 11/08 A3009 RMK AO2 SLP191 P0003
                 T01060078 =
2018-04-24 11:16 METAR KCAK 241516Z 11010KT 6SM -RA BKN021 OVC065 11/07 A3010 RMK AO2 P0001
                 T01060072 =
2018-04-24 10:51 METAR KCAK 241451Z 11013KT 8SM -RA SCT023 OVC055 11/07 A3011 RMK AO2 SLP197 SCT
                 V BKN P0001 60001 T01060072 58008 =
2018-04-24 09:51 METAR KCAK 241351Z 11010KT 10SM -RA FEW029 OVC046 12/07 A3013 RMK AO2 SLP202
                 RAB28 P0000 T01170067 =
2018-04-24 08:51 METAR KCAK 241251Z 13012KT 10SM OVC040 12/06 A3014 RMK AO2 RAE08 SLP205 P0000
                 T01220061 =
2018-04-24 07:51 METAR KCAK 241151Z 12009KT 10SM -RA OVC045 12/07 A3013 RMK AO2 RAB35 SLP204
                 P0000 60000 T01220067 10139 20122 53001 =
2018-04-24 06:51 METAR KCAK 241051Z 12010KT 10SM FEW039 OVC050 12/07 A3013 RMK AO2 SLP202
                 T01220067 =
2018-04-24 05:51 METAR KCAK 240951Z 12010KT 10SM OVC050 13/07 A3013 RMK AO2 SLP198 T01330067 =
2018-04-24 04:51 METAR KCAK 240851Z 10008KT 10SM BKN050 OVC070 13/07 A3013 RMK AO2 SLP199
                 T01330067 56010 =
2018-04-24 03:51 METAR KCAK 240751Z 11009KT 10SM BKN050 OVC065 13/05 A3014 RMK AO2 SLP204
                 T01330050 =
2018-04-24 02:51 METAR KCAK 240651Z 10006KT 10SM BKN050 OVC060 13/04 A3015 RMK AO2 SLP205
                 T01330039 =
2018-04-24 01:51 METAR KCAK 240551Z 11005KT 10SM BKN060 OVC075 14/04 A3016 RMK AO2 SLP211
                 T01390039 10161 20128 56012 =

Support USWX by starting your Amazon purchase here.